ENY3702 KLIT-KORD
Flight info
| Callsign | ENY3702 |
|---|---|
| Flight time | N/A |
| Altitude | 30000 |
| Route | SICOD SGF SAAGS IRK BENKY6 |
| Aircraft | E170/M-SDE3GILORVW/S |
Departure
| Time | 2026-04-28 22:55 |
|---|---|
| Airport | Bill & Hillary Clinton National Airport/Adams Field (KLIT) |
Arrival
| Time | N/A |
|---|---|
| Airport | Chicago O'Hare International Airport (KORD) |
| Time | Latitude | Longitude | Altitude | Speed | Heading |
|---|---|---|---|---|---|
| 2026-04-28 22:38 | 34.72931 | -92.21977 | 265 ft | 0 kts | 292° |
| 2026-04-28 22:44 | 34.72930 | -92.21974 | 265 ft | 3 kts | 291° |
| 2026-04-28 22:45 | 34.72921 | -92.21944 | 265 ft | 4 kts | 294° |
| 2026-04-28 22:45 | 34.72908 | -92.21932 | 265 ft | 1 kts | 10° |
| 2026-04-28 22:49 | 34.72933 | -92.21914 | 265 ft | 10 kts | 40° |
| 2026-04-28 22:50 | 34.72996 | -92.21852 | 265 ft | 13 kts | 39° |
| 2026-04-28 22:50 | 34.73077 | -92.21780 | 265 ft | 14 kts | 37° |
| 2026-04-28 22:50 | 34.73086 | -92.21735 | 266 ft | 5 kts | 112° |
| 2026-04-28 22:50 | 34.73062 | -92.21665 | 267 ft | 14 kts | 114° |
| 2026-04-28 22:51 | 34.73015 | -92.21540 | 265 ft | 18 kts | 115° |
| 2026-04-28 22:51 | 34.72959 | -92.21395 | 265 ft | 20 kts | 114° |
| 2026-04-28 22:51 | 34.72911 | -92.21227 | 264 ft | 21 kts | 111° |
| 2026-04-28 22:51 | 34.72912 | -92.21137 | 264 ft | 8 kts | 38° |
| 2026-04-28 22:52 | 34.72967 | -92.21068 | 264 ft | 15 kts | 48° |
| 2026-04-28 22:52 | 34.73041 | -92.20967 | 264 ft | 17 kts | 48° |
| 2026-04-28 22:52 | 34.73136 | -92.20851 | 264 ft | 22 kts | 46° |
| 2026-04-28 22:52 | 34.73244 | -92.20715 | 264 ft | 24 kts | 46° |
| 2026-04-28 22:53 | 34.73351 | -92.20561 | 264 ft | 23 kts | 46° |
| 2026-04-28 22:53 | 34.73462 | -92.20409 | 264 ft | 25 kts | 52° |
| 2026-04-28 22:53 | 34.73557 | -92.20248 | 263 ft | 14 kts | 77° |
| 2026-04-28 22:53 | 34.73513 | -92.20165 | 259 ft | 16 kts | 142° |
| 2026-04-28 22:54 | 34.73473 | -92.20144 | 260 ft | 3 kts | 237° |
| 2026-04-28 22:54 | 34.73458 | -92.20180 | 260 ft | 6 kts | 240° |
| 2026-04-28 22:54 | 34.73441 | -92.20211 | 260 ft | 2 kts | 216° |
| 2026-04-28 22:54 | 34.73340 | -92.20334 | 261 ft | 56 kts | 226° |
| 2026-04-28 22:55 | 34.72879 | -92.20919 | 259 ft | 133 kts | 226° |
| 2026-04-28 22:55 | 34.72162 | -92.21849 | 726 ft | 159 kts | 225° |
| 2026-04-28 22:55 | 34.71430 | -92.22797 | 1805 ft | 149 kts | 232° |
| 2026-04-28 22:55 | 34.71119 | -92.24010 | 2699 ft | 153 kts | 258° |
| 2026-04-28 22:56 | 34.71292 | -92.25330 | 3383 ft | 172 kts | 289° |
| 2026-04-28 22:56 | 34.72012 | -92.26610 | 3918 ft | 193 kts | 297° |
| 2026-04-28 22:56 | 34.72453 | -92.28141 | 4566 ft | 198 kts | 278° |
| 2026-04-28 22:56 | 34.72779 | -92.29827 | 5185 ft | 210 kts | 279° |
| 2026-04-28 22:57 | 34.73123 | -92.31568 | 5817 ft | 220 kts | 279° |
| 2026-04-28 22:57 | 34.73475 | -92.33421 | 6550 ft | 232 kts | 279° |
| 2026-04-28 22:57 | 34.74134 | -92.35341 | 6976 ft | 264 kts | 303° |
| 2026-04-28 22:57 | 34.75672 | -92.36738 | 7749 ft | 286 kts | 334° |
| 2026-04-28 22:58 | 34.77673 | -92.37067 | 8715 ft | 297 kts | 358° |
| 2026-04-28 22:58 | 34.79742 | -92.36856 | 9648 ft | 299 kts | 360° |
| 2026-04-28 22:58 | 34.81809 | -92.36623 | 10283 ft | 308 kts | 359° |
| 2026-04-28 22:58 | 34.83991 | -92.36368 | 10713 ft | 323 kts | 359° |
| 2026-04-28 22:59 | 34.86259 | -92.36093 | 11281 ft | 331 kts | 359° |
| 2026-04-28 22:59 | 34.88556 | -92.35795 | 12058 ft | 332 kts | 359° |
| 2026-04-28 22:59 | 34.90860 | -92.35466 | 12857 ft | 335 kts | 359° |
| 2026-04-28 22:59 | 34.93177 | -92.35109 | 13707 ft | 337 kts | 359° |
| 2026-04-28 23:00 | 34.95515 | -92.34725 | 14458 ft | 341 kts | 359° |
| 2026-04-28 23:00 | 34.97878 | -92.34326 | 15214 ft | 346 kts | 0° |
| 2026-04-28 23:00 | 35.00273 | -92.33939 | 15946 ft | 350 kts | 359° |
| 2026-04-28 23:00 | 35.02698 | -92.33547 | 16663 ft | 353 kts | 360° |
| 2026-04-28 23:01 | 35.05149 | -92.33148 | 17368 ft | 357 kts | 360° |
| 2026-04-28 23:01 | 35.07626 | -92.32743 | 18077 ft | 360 kts | 359° |
| 2026-04-28 23:01 | 35.10129 | -92.32330 | 18661 ft | 365 kts | 360° |
| 2026-04-28 23:01 | 35.12663 | -92.31916 | 19218 ft | 370 kts | 360° |
| 2026-04-28 23:02 | 35.15231 | -92.31507 | 19805 ft | 375 kts | 360° |
| 2026-04-28 23:02 | 35.17835 | -92.31096 | 20413 ft | 380 kts | 360° |
| 2026-04-28 23:02 | 35.20472 | -92.30686 | 21010 ft | 384 kts | 360° |
| 2026-04-28 23:02 | 35.23149 | -92.30277 | 21602 ft | 390 kts | 359° |
| 2026-04-28 23:03 | 35.25856 | -92.29849 | 22218 ft | 395 kts | 359° |
| 2026-04-28 23:03 | 35.28593 | -92.29402 | 22828 ft | 400 kts | 359° |
| 2026-04-28 23:03 | 35.31372 | -92.28944 | 23399 ft | 405 kts | 359° |
| 2026-04-28 23:03 | 35.34169 | -92.28473 | 23920 ft | 407 kts | 360° |
| 2026-04-28 23:04 | 35.36950 | -92.28007 | 24383 ft | 410 kts | 360° |
| 2026-04-28 23:04 | 35.42659 | -92.27079 | 25293 ft | 418 kts | 360° |
| 2026-04-28 23:04 | 35.45550 | -92.26620 | 25748 ft | 421 kts | 360° |
| 2026-04-28 23:05 | 35.48474 | -92.26163 | 26206 ft | 425 kts | 359° |
| 2026-04-28 23:05 | 35.51421 | -92.25696 | 26553 ft | 430 kts | 359° |
| 2026-04-28 23:05 | 35.54407 | -92.25218 | 26952 ft | 434 kts | 360° |
| 2026-04-28 23:05 | 35.57418 | -92.24740 | 27346 ft | 438 kts | 360° |
| 2026-04-28 23:06 | 35.59425 | -92.24424 | 27613 ft | 440 kts | 360° |
| 2026-04-28 23:06 | 35.62457 | -92.23962 | 27947 ft | 441 kts | 358° |
| 2026-04-28 23:06 | 35.65486 | -92.24005 | 28267 ft | 431 kts | 344° |
| 2026-04-28 23:06 | 35.68343 | -92.24903 | 28721 ft | 419 kts | 329° |
| 2026-04-28 23:07 | 35.70856 | -92.26603 | 29103 ft | 408 kts | 315° |
| 2026-04-28 23:07 | 35.72931 | -92.28979 | 29469 ft | 398 kts | 302° |
| 2026-04-28 23:07 | 35.74395 | -92.31683 | 30124 ft | 377 kts | 292° |
| 2026-04-28 23:07 | 35.75484 | -92.34648 | 30137 ft | 384 kts | 287° |
| 2026-04-28 23:08 | 35.77711 | -92.40837 | 29827 ft | 410 kts | 289° |
| 2026-04-28 23:08 | 35.80105 | -92.47298 | 29873 ft | 420 kts | 290° |
| 2026-04-28 23:09 | 35.83006 | -92.53628 | 29886 ft | 431 kts | 299° |
| 2026-04-28 23:09 | 35.87002 | -92.59233 | 29870 ft | 442 kts | 310° |
| 2026-04-28 23:10 | 35.91952 | -92.63851 | 29863 ft | 450 kts | 319° |
| 2026-04-28 23:10 | 35.97334 | -92.67875 | 29870 ft | 455 kts | 327° |
| 2026-04-28 23:11 | 36.03190 | -92.70946 | 29868 ft | 459 kts | 331° |
| 2026-04-28 23:11 | 36.09165 | -92.73772 | 29855 ft | 460 kts | 332° |
| 2026-04-28 23:12 | 36.15157 | -92.76571 | 29856 ft | 460 kts | 332° |
| 2026-04-28 23:12 | 36.21152 | -92.79368 | 29872 ft | 460 kts | 332° |
| 2026-04-28 23:13 | 36.27152 | -92.82184 | 29889 ft | 462 kts | 332° |
| 2026-04-28 23:13 | 36.33158 | -92.84999 | 29894 ft | 462 kts | 332° |
| 2026-04-28 23:14 | 36.39171 | -92.87822 | 29893 ft | 461 kts | 331° |
| 2026-04-28 23:14 | 36.45176 | -92.90646 | 29896 ft | 461 kts | 331° |
| 2026-04-28 23:15 | 36.51180 | -92.93479 | 29913 ft | 462 kts | 331° |
| 2026-04-28 23:15 | 36.57189 | -92.96314 | 29868 ft | 462 kts | 331° |
| 2026-04-28 23:16 | 36.63195 | -92.99152 | 29870 ft | 462 kts | 331° |
| 2026-04-28 23:16 | 36.69197 | -93.01993 | 29878 ft | 462 kts | 331° |
| 2026-04-28 23:17 | 36.75217 | -93.04852 | 29883 ft | 463 kts | 331° |
| 2026-04-28 23:17 | 36.81256 | -93.07720 | 29886 ft | 465 kts | 331° |
| 2026-04-28 23:18 | 36.87257 | -93.10573 | 29881 ft | 465 kts | 331° |
| 2026-04-28 23:18 | 36.93295 | -93.13453 | 29883 ft | 464 kts | 331° |
| 2026-04-28 23:19 | 36.99340 | -93.16338 | 29897 ft | 465 kts | 330° |
| 2026-04-28 23:19 | 37.05384 | -93.19228 | 29903 ft | 465 kts | 330° |
| 2026-04-28 23:20 | 37.11429 | -93.22124 | 29917 ft | 465 kts | 330° |
| 2026-04-28 23:20 | 37.17463 | -93.25021 | 29925 ft | 465 kts | 330° |
| 2026-04-28 23:21 | 37.23510 | -93.27927 | 29943 ft | 465 kts | 330° |
| 2026-04-28 23:21 | 37.29560 | -93.30840 | 29921 ft | 466 kts | 330° |
| 2026-04-28 23:22 | 37.35677 | -93.33571 | 29926 ft | 476 kts | 339° |
| 2026-04-28 23:22 | 37.39039 | -93.33981 | 29928 ft | 491 kts | 350° |
| 2026-04-28 23:22 | 37.42474 | -93.33924 | 29938 ft | 495 kts | 353° |
| 2026-04-28 23:23 | 37.49358 | -93.33655 | 29916 ft | 495 kts | 353° |
| 2026-04-28 23:23 | 37.56235 | -93.33451 | 29923 ft | 494 kts | 352° |
| 2026-04-28 23:24 | 37.63113 | -93.33264 | 29931 ft | 494 kts | 352° |
| 2026-04-28 23:24 | 37.69993 | -93.33075 | 29901 ft | 494 kts | 351° |
| 2026-04-28 23:25 | 37.76866 | -93.32891 | 29947 ft | 495 kts | 351° |
| 2026-04-28 23:25 | 37.83747 | -93.32707 | 29948 ft | 494 kts | 351° |
| 2026-04-28 23:26 | 37.90627 | -93.32522 | 29953 ft | 495 kts | 351° |
| 2026-04-28 23:26 | 37.97521 | -93.32336 | 29954 ft | 496 kts | 351° |
| 2026-04-28 23:27 | 38.04367 | -93.32152 | 29968 ft | 495 kts | 351° |
| 2026-04-28 23:27 | 38.11256 | -93.31965 | 29979 ft | 495 kts | 351° |
| 2026-04-28 23:28 | 38.18152 | -93.31774 | 29979 ft | 493 kts | 350° |
| 2026-04-28 23:28 | 38.25033 | -93.31589 | 29987 ft | 495 kts | 350° |
| 2026-04-28 23:29 | 38.31919 | -93.31401 | 29987 ft | 495 kts | 350° |
| 2026-04-28 23:29 | 38.38805 | -93.31215 | 29998 ft | 495 kts | 350° |
| 2026-04-28 23:30 | 38.45695 | -93.31027 | 29994 ft | 495 kts | 350° |
| 2026-04-28 23:30 | 38.52573 | -93.30838 | 29992 ft | 495 kts | 350° |
| 2026-04-28 23:31 | 38.59461 | -93.30649 | 29989 ft | 495 kts | 350° |
| 2026-04-28 23:31 | 38.66315 | -93.30460 | 30005 ft | 492 kts | 349° |
| 2026-04-28 23:32 | 38.73156 | -93.30273 | 29987 ft | 492 kts | 349° |
| 2026-04-28 23:32 | 38.80005 | -93.30085 | 29987 ft | 492 kts | 349° |
| 2026-04-28 23:33 | 38.86843 | -93.29891 | 29917 ft | 487 kts | 348° |
| 2026-04-28 23:33 | 38.90199 | -93.29791 | 30023 ft | 482 kts | 348° |
| 2026-04-28 23:33 | 38.93555 | -93.29704 | 30023 ft | 483 kts | 348° |
| 2026-04-28 23:34 | 39.00283 | -93.29522 | 30012 ft | 483 kts | 348° |
| 2026-04-28 23:34 | 39.07006 | -93.29337 | 30008 ft | 484 kts | 348° |
| 2026-04-28 23:35 | 39.13656 | -93.29150 | 30010 ft | 481 kts | 349° |
| 2026-04-28 23:35 | 39.20347 | -93.28965 | 30010 ft | 481 kts | 349° |
| 2026-04-28 23:36 | 39.27028 | -93.28777 | 30011 ft | 480 kts | 349° |
| 2026-04-28 23:36 | 39.33708 | -93.28593 | 29993 ft | 478 kts | 350° |
| 2026-04-28 23:37 | 39.40371 | -93.28404 | 30024 ft | 479 kts | 350° |
| 2026-04-28 23:37 | 39.47077 | -93.27267 | 30024 ft | 511 kts | 12° |
| 2026-04-28 23:38 | 39.50240 | -93.24960 | 30050 ft | 532 kts | 28° |
| 2026-04-28 23:38 | 39.53166 | -93.21976 | 30070 ft | 537 kts | 32° |
| 2026-04-28 23:38 | 39.58874 | -93.15858 | 30025 ft | 530 kts | 32° |
| 2026-04-28 23:39 | 39.64632 | -93.09870 | 30024 ft | 530 kts | 32° |
| 2026-04-28 23:39 | 39.70407 | -93.03903 | 30020 ft | 532 kts | 32° |
| 2026-04-28 23:40 | 39.76202 | -92.97908 | 30024 ft | 532 kts | 32° |
| 2026-04-28 23:40 | 39.81972 | -92.91921 | 30036 ft | 530 kts | 32° |
| 2026-04-28 23:41 | 39.87741 | -92.85928 | 30039 ft | 531 kts | 32° |
| 2026-04-28 23:41 | 39.93471 | -92.79962 | 30044 ft | 531 kts | 32° |
| 2026-04-28 23:42 | 39.99229 | -92.73953 | 30037 ft | 531 kts | 33° |
| 2026-04-28 23:42 | 40.04997 | -92.67919 | 30036 ft | 532 kts | 33° |
| 2026-04-28 23:43 | 40.10749 | -92.61892 | 30021 ft | 530 kts | 33° |
| 2026-04-28 23:43 | 40.13426 | -92.58546 | 30025 ft | 539 kts | 47° |
| 2026-04-28 23:43 | 40.15421 | -92.54376 | 30060 ft | 545 kts | 61° |
| 2026-04-28 23:44 | 40.18533 | -92.45330 | 30007 ft | 545 kts | 65° |
| 2026-04-28 23:44 | 40.21703 | -92.36327 | 30023 ft | 545 kts | 63° |
| 2026-04-28 23:45 | 40.24936 | -92.27344 | 30009 ft | 542 kts | 64° |
| 2026-04-28 23:45 | 40.28156 | -92.18416 | 30038 ft | 543 kts | 64° |
| 2026-04-28 23:46 | 40.31375 | -92.09467 | 30037 ft | 543 kts | 64° |
| 2026-04-28 23:46 | 40.34586 | -92.00509 | 30035 ft | 543 kts | 64° |
| 2026-04-28 23:47 | 40.37790 | -91.91546 | 30024 ft | 543 kts | 64° |
| 2026-04-28 23:47 | 40.40961 | -91.82648 | 30024 ft | 542 kts | 64° |
| 2026-04-28 23:48 | 40.44114 | -91.73664 | 30021 ft | 542 kts | 65° |
| 2026-04-28 23:48 | 40.47168 | -91.64605 | 29986 ft | 543 kts | 65° |
| 2026-04-28 23:49 | 40.50244 | -91.55494 | 30013 ft | 542 kts | 65° |
| 2026-04-28 23:49 | 40.53276 | -91.46510 | 30009 ft | 541 kts | 66° |
| 2026-04-28 23:50 | 40.56318 | -91.37479 | 30005 ft | 541 kts | 65° |
| 2026-04-28 23:50 | 40.59412 | -91.28463 | 29998 ft | 541 kts | 65° |
| 2026-04-28 23:51 | 40.62499 | -91.19433 | 30001 ft | 541 kts | 65° |
| 2026-04-28 23:51 | 40.65573 | -91.10401 | 30003 ft | 540 kts | 65° |
| 2026-04-28 23:52 | 40.68637 | -91.01363 | 30009 ft | 540 kts | 66° |
| 2026-04-28 23:52 | 40.71692 | -90.92326 | 30014 ft | 540 kts | 66° |
| 2026-04-28 23:53 | 40.74725 | -90.83322 | 30015 ft | 540 kts | 66° |
| 2026-04-28 23:53 | 40.77247 | -90.75812 | 29979 ft | 540 kts | 66° |